Map

Track Data

SID SEASON NUMBER BASIN SUBBASIN NAME ISO_TIME NATURE LAT LON WMO_WIND WMO_PRES WMO_AGENCY TRACK_TYPE DIST2LAND LANDFALL IFLAG USA_AGENCY USA_ATCF_ID USA_LAT USA_LON USA_RECORD USA_STATUS USA_WIND USA_PRES USA_SSHS USA_R34_NE USA_R34_SE USA_R34_SW USA_R34_NW USA_R50_NE USA_R50_SE USA_R50_SW USA_R50_NW USA_R64_NE USA_R64_SE USA_R64_SW USA_R64_NW USA_POCI USA_ROCI USA_RMW USA_EYE TOKYO_LAT TOKYO_LON TOKYO_GRADE TOKYO_WIND TOKYO_PRES TOKYO_R50_DIR TOKYO_R50_LONG TOKYO_R50_SHORT TOKYO_R30_DIR TOKYO_R30_LONG TOKYO_R30_SHORT TOKYO_LAND CMA_LAT CMA_LON CMA_CAT CMA_WIND CMA_PRES HKO_LAT HKO_LON HKO_CAT HKO_WIND HKO_PRES NEWDELHI_LAT NEWDELHI_LON NEWDELHI_GRADE NEWDELHI_WIND NEWDELHI_PRES NEWDELHI_CI NEWDELHI_DP NEWDELHI_POCI REUNION_LAT REUNION_LON REUNION_TYPE REUNION_WIND REUNION_PRES REUNION_TNUM REUNION_CI REUNION_RMW REUNION_R34_NE REUNION_R34_SE REUNION_R34_SW REUNION_R34_NW REUNION_R50_NE REUNION_R50_SE REUNION_R50_SW REUNION_R50_NW REUNION_R64_NE REUNION_R64_SE REUNION_R64_SW REUNION_R64_NW BOM_LAT BOM_LON BOM_TYPE BOM_WIND BOM_PRES BOM_TNUM BOM_CI BOM_RMW BOM_R34_NE BOM_R34_SE BOM_R34_SW BOM_R34_NW BOM_R50_NE BOM_R50_SE BOM_R50_SW BOM_R50_NW BOM_R64_NE BOM_R64_SE BOM_R64_SW BOM_R64_NW BOM_ROCI BOM_POCI BOM_EYE BOM_POS_METHOD BOM_PRES_METHOD NADI_LAT NADI_LON NADI_CAT NADI_WIND NADI_PRES WELLINGTON_LAT WELLINGTON_LON WELLINGTON_WIND WELLINGTON_PRES DS824_LAT DS824_LON DS824_STAGE DS824_WIND DS824_PRES TD9636_LAT TD9636_LON TD9636_STAGE TD9636_WIND TD9636_PRES TD9635_LAT TD9635_LON TD9635_WIND TD9635_PRES TD9635_ROCI NEUMANN_LAT NEUMANN_LON NEUMANN_CLASS NEUMANN_WIND NEUMANN_PRES MLC_LAT MLC_LON MLC_CLASS MLC_WIND MLC_PRES USA_GUST BOM_GUST BOM_GUST_PER REUNION_GUST REUNION_GUST_PER USA_SEAHGT USA_SEARAD_NE USA_SEARAD_SE USA_SEARAD_SW USA_SEARAD_NW STORM_SPEED STORM_DIR
1907310N32320 1907 59 NA NA NOT_NAMED 1907-11-06 00:00:00 TS 31.5000 -39.7000 35 hurdat_atl main 2037 2037 O_____________ hurdat_atl AL051907 31.5000 -39.7000 TS 35 0 7 197
1907310N32320 1907 59 NA NA NOT_NAMED 1907-11-06 03:00:00 TS 31.1675 -39.8102 main 2061 2061 P_____________ AL051907 31.1675 -39.8102 TS 35 0 7 194
1907310N32320 1907 59 NA NA NOT_NAMED 1907-11-06 06:00:00 TS 30.8000 -39.9000 35 hurdat_atl main 2095 2095 O_____________ hurdat_atl AL051907 30.8000 -39.9000 TS 35 0 8 189
1907310N32320 1907 59 NA NA NOT_NAMED 1907-11-06 09:00:00 TS 30.3850 -39.9574 main 2130 2130 P_____________ AL051907 30.3850 -39.9574 TS 35 0 8 186
1907310N32320 1907 59 NA NA NOT_NAMED 1907-11-06 12:00:00 TS 30.0000 -40.0000 35 hurdat_atl main 2169 2169 O_____________ hurdat_atl AL051907 30.0000 -40.0000 TS 35 0 7 187
1907310N32320 1907 59 NA NA NOT_NAMED 1907-11-06 15:00:00 TS 29.7350 -40.0499 main 2199 2194 P_____________ AL051907 29.7350 -40.0499 TS 35 0 5 190
1907310N32320 1907 59 NA NA NOT_NAMED 1907-11-06 18:00:00 TS 29.5000 -40.1000 35 hurdat_atl main 2214 2214 O_____________ hurdat_atl AL051907 29.5000 -40.1000 TS 35 0 5 190
1907310N32320 1907 59 NA NA NOT_NAMED 1907-11-06 21:00:00 TS 29.2150 -40.1500 main 2244 2240 P_____________ AL051907 29.2150 -40.1500 TS 35 0 6 188
1907310N32320 1907 59 NA NA NOT_NAMED 1907-11-07 00:00:00 TS 28.9000 -40.2000 35 hurdat_atl main 2270 2270 O_____________ hurdat_atl AL051907 28.9000 -40.2000 TS 35 0 7 187
1907310N32320 1907 59 NA NA NOT_NAMED 1907-11-07 03:00:00 TS 28.5575 -40.2424 main 2281 2281 P_____________ AL051907 28.5575 -40.2424 TS 35 0 7 187
1907310N32320 1907 59 NA NA NOT_NAMED 1907-11-07 06:00:00 TS 28.2000 -40.3000 35 hurdat_atl main 2295 2295 O_____________ hurdat_atl AL051907 28.2000 -40.3000 TS 35 0 8 189
1907310N32320 1907 59 NA NA NOT_NAMED 1907-11-07 09:00:00 TS 27.8200 -40.3775 main 2310 2310 P_____________ AL051907 27.8200 -40.3775 TS 35 0 7 194
1907310N32320 1907 59 NA NA NOT_NAMED 1907-11-07 12:00:00 TS 27.5000 -40.5000 35 hurdat_atl main 2324 2324 O_____________ hurdat_atl AL051907 27.5000 -40.5000 TS 35 0 6 208
1907310N32320 1907 59 NA NA NOT_NAMED 1907-11-07 15:00:00 TS 27.3200 -40.6774 main 2347 2347 P_____________ AL051907 27.3200 -40.6774 TS 35 0 5 230
1907310N32320 1907 59 NA NA NOT_NAMED 1907-11-07 18:00:00 TS 27.2000 -40.9000 35 hurdat_atl main 2368 2368 O_____________ hurdat_atl AL051907 27.2000 -40.9000 TS 35 0 5 236
1907310N32320 1907 59 NA NA NOT_NAMED 1907-11-07 21:00:00 TS 27.0425 -41.1425 main 2391 2391 P_____________ AL051907 27.0425 -41.1425 TS 37 0 5 236
1907310N32320 1907 59 NA NA NOT_NAMED 1907-11-08 00:00:00 TS 26.9000 -41.4000 40 hurdat_atl main 2422 2422 O_____________ hurdat_atl AL051907 26.9000 -41.4000 TS 40 0 5 239
1907310N32320 1907 59 NA NA NOT_NAMED 1907-11-08 03:00:00 TS 26.7774 -41.6425 main 2428 2425 P_____________ AL051907 26.7774 -41.6425 TS 40 0 5 246
1907310N32320 1907 59 NA NA NOT_NAMED 1907-11-08 06:00:00 TS 26.7000 -41.9000 40 hurdat_atl main 2428 2421 O_____________ hurdat_atl AL051907 26.7000 -41.9000 TS 40 0 5 254
1907310N32320 1907 59 NA NA NOT_NAMED 1907-11-08 09:00:00 TS 26.6472 -42.1628 main 2428 2407 P_____________ AL051907 26.6472 -42.1628 TS 40 0 5 270
1907310N32320 1907 59 NA NA NOT_NAMED 1907-11-08 12:00:00 TS 26.7000 -42.5000 40 hurdat_atl main 2407 2369 O_____________ hurdat_atl AL051907 26.7000 -42.5000 TS 40 0 8 287
1907310N32320 1907 59 NA NA NOT_NAMED 1907-11-08 15:00:00 TS 26.8829 -43.0072 main 2369 2321 P_____________ AL051907 26.8829 -43.0072 TS 40 0 10 299
1907310N32320 1907 59 NA NA NOT_NAMED 1907-11-08 18:00:00 TS 27.2000 -43.5000 40 hurdat_atl main 2321 2269 O_____________ hurdat_atl AL051907 27.2000 -43.5000 TS 40 0 10 316
1907310N32320 1907 59 NA NA NOT_NAMED 1907-11-08 21:00:00 TS 27.6123 -43.8100 main 2269 2210 P_____________ AL051907 27.6123 -43.8100 TS 40 0 10 334
1907310N32320 1907 59 NA NA NOT_NAMED 1907-11-09 00:00:00 TS 28.1000 -44.0000 40 hurdat_atl main 2210 2154 O_____________ hurdat_atl AL051907 28.1000 -44.0000 TS 40 0 10 345
1907310N32320 1907 59 NA NA NOT_NAMED 1907-11-09 03:00:00 TS 28.5999 -44.1154 main 2154 2098 P_____________ AL051907 28.5999 -44.1154 TS 40 0 10 350
1907310N32320 1907 59 NA NA NOT_NAMED 1907-11-09 06:00:00 TS 29.1000 -44.2000 40 hurdat_atl main 2098 2053 O_____________ hurdat_atl AL051907 29.1000 -44.2000 TS 40 0 10 348
1907310N32320 1907 59 NA NA NOT_NAMED 1907-11-09 09:00:00 TS 29.5650 -44.3499 main 2042 1994 P_____________ AL051907 29.5650 -44.3499 TS 40 0 9 344
1907310N32320 1907 59 NA NA NOT_NAMED 1907-11-09 12:00:00 TS 30.0000 -44.5000 40 hurdat_atl main 1994 1949 O_____________ hurdat_atl AL051907 30.0000 -44.5000 TS 40 0 9 345
1907310N32320 1907 59 NA NA NOT_NAMED 1907-11-09 15:00:00 TS 30.3925 -44.6004 main 1949 1903 P_____________ AL051907 30.3925 -44.6004 TS 40 0 8 348
1907310N32320 1907 59 NA NA NOT_NAMED 1907-11-09 18:00:00 TS 30.8000 -44.7000 40 hurdat_atl main 1903 1848 O_____________ hurdat_atl AL051907 30.8000 -44.7000 TS 40 0 9 347
1907310N32320 1907 59 NA NA NOT_NAMED 1907-11-09 21:00:00 TS 31.3000 -44.8350 main 1848 1789 P_____________ AL051907 31.3000 -44.8350 TS 40 0 10 346
1907310N32320 1907 59 NA NA NOT_NAMED 1907-11-10 00:00:00 TS 31.8000 -45.0000 40 hurdat_atl main 1789 1740 O_____________ hurdat_atl AL051907 31.8000 -45.0000 TS 40 0 10 342
1907310N32320 1907 59 NA NA NOT_NAMED 1907-11-10 03:00:00 TS 32.2074 -45.1779 main 1740 1692 P_____________ AL051907 32.2074 -45.1779 TS 40 0 9 337
1907310N32320 1907 59 NA NA NOT_NAMED 1907-11-10 06:00:00 TS 32.6000 -45.4000 40 hurdat_atl main 1692 1641 O_____________ hurdat_atl AL051907 32.6000 -45.4000 TS 40 0 10 333
1907310N32320 1907 59 NA NA NOT_NAMED 1907-11-10 09:00:00 TS 33.0651 -45.6996 main 1630 1579 P_____________ AL051907 33.0651 -45.6996 TS 40 0 10 331
1907310N32320 1907 59 NA NA NOT_NAMED 1907-11-10 12:00:00 TS 33.5000 -46.0000 40 hurdat_atl main 1579 1541 O_____________ hurdat_atl AL051907 33.5000 -46.0000 TS 40 0 9 331
1907310N32320 1907 59 NA NA NOT_NAMED 1907-11-10 15:00:00 TS 33.8223 -46.2081 main 1541 1503 P_____________ AL051907 33.8223 -46.2081 TS 40 0 7 331
1907310N32320 1907 59 NA NA NOT_NAMED 1907-11-10 18:00:00 TS 34.1000 -46.4000 40 hurdat_atl main 1503 1465 O_____________ hurdat_atl AL051907 34.1000 -46.4000 TS 40 0 7 329
1907310N32320 1907 59 NA NA NOT_NAMED 1907-11-10 21:00:00 TS 34.3924 -46.6279 main 1465 1424 P_____________ AL051907 34.3924 -46.6279 TS 40 0 7 325
1907310N32320 1907 59 NA NA NOT_NAMED 1907-11-11 00:00:00 TS 34.7000 -46.9000 40 hurdat_atl main 1424 1384 O_____________ hurdat_atl AL051907 34.7000 -46.9000 TS 40 0 8 320
1907310N32320 1907 59 NA NA NOT_NAMED 1907-11-11 03:00:00 TS 35.0127 -47.2575 main 1381 1330 P_____________ AL051907 35.0127 -47.2575 TS 40 0 9 321
1907310N32320 1907 59 NA NA NOT_NAMED 1907-11-11 06:00:00 TS 35.4000 -47.6000 40 hurdat_atl main 1330 1271 O_____________ hurdat_atl AL051907 35.4000 -47.6000 TS 40 0 10 332
1907310N32320 1907 59 NA NA NOT_NAMED 1907-11-11 09:00:00 TS 35.9124 -47.8523 main 1268 1202 P_____________ AL051907 35.9124 -47.8523 TS 40 0 11 344
1907310N32320 1907 59 NA NA NOT_NAMED 1907-11-11 12:00:00 TS 36.5000 -48.0000 40 hurdat_atl main 1202 1136 O_____________ hurdat_atl AL051907 36.5000 -48.0000 TS 40 0 12 351
1907310N32320 1907 59 NA NA NOT_NAMED 1907-11-11 15:00:00 TS 37.1073 -48.0820 main 1136 1077 P_____________ AL051907 37.1073 -48.0820 TS 40 0 12 1
1907310N32320 1907 59 NA NA NOT_NAMED 1907-11-11 18:00:00 TS 37.7000 -48.0000 40 hurdat_atl main 1077 1036 O_____________ hurdat_atl AL051907 37.7000 -48.0000 TS 40 0 12 15
1907310N32320 1907 59 NA NA NOT_NAMED 1907-11-11 21:00:00 TS 38.2228 -47.6958 main 1036 1000 P_____________ AL051907 38.2228 -47.6958 TS 37 0 11 29
1907310N32320 1907 59 NA NA NOT_NAMED 1907-11-12 00:00:00 TS 38.7000 -47.3000 35 hurdat_atl main 1000 969 O_____________ hurdat_atl AL051907 38.7000 -47.3000 TS 35 0 11 30
1907310N32320 1907 59 NA NA NOT_NAMED 1907-11-12 03:00:00 TS 39.1573 -46.9992 main 963 938 P_____________ AL051907 39.1573 -46.9992 TS 35 0 10 27
1907310N32320 1907 59 NA NA NOT_NAMED 1907-11-12 06:00:00 TS 39.6000 -46.7000 35 hurdat_atl main 938 915 O_____________ hurdat_atl AL051907 39.6000 -46.7000 TS 35 0 10 29
1907310N32320 1907 59 NA NA NOT_NAMED 1907-11-12 09:00:00 TS 40.0272 -46.3788 main 915 890 P_____________ AL051907 40.0272 -46.3788 TS 35 0 10 31
1907310N32320 1907 59 NA NA NOT_NAMED 1907-11-12 12:00:00 TS 40.5000 -46.0000 35 hurdat_atl main 890 869 O_____________ hurdat_atl AL051907 40.5000 -46.0000 TS 35 0 12 32
1907310N32320 1907 59 NA NA NOT_NAMED 1907-11-12 15:00:00 TS 41.0706 -45.5302 main 866 848 P_____________ AL051907 41.0706 -45.5302 TS 35 0 14 32
1907310N32320 1907 59 NA NA NOT_NAMED 1907-11-12 18:00:00 ET 41.7000 -45.0000 35 hurdat_atl main 848 O_____________ hurdat_atl AL051907 41.7000 -45.0000 EX 35 -4 15 32

About IBTrACS Database

This database is a web-friendly format of International Best Track Archive for Climate Stewardship (IBTrACS), a global best track data archive curated by NOAA dating back to 1842.

Updated: 2021-11-26